Time;durP1;ratioP1;P1;durP2;ratioP2;P2;SDS_P1;SDS_P2;PMS_P1;PMS_P2;Temp;Humidity;BMP_temperature;BMP_pressure;BME280_temperature;BME280_humidity;BME280_pressure;Samples;Min_cycle;Max_cycle;Signal;HPM_P1;HPM_P2
2022/10/11 00:00:19;;;;;;;9.53;3.27;;;;;;;18.76;59.07;99778.44;4973241;28;20598;-86
2022/10/11 00:02:44;;;;;;;10.97;3.77;;;;;;;18.80;58.97;99779.06;4976261;28;20179;-86
2022/10/11 00:05:10;;;;;;;8.63;4.13;;;;;;;18.71;59.23;99779.75;4978276;28;20180;-86
2022/10/11 00:07:38;;;;;;;7.17;3.23;;;;;;;18.74;59.33;99777.69;4978204;28;20648;-86
2022/10/11 00:10:05;;;;;;;7.00;3.77;;;;;;;18.72;59.51;99774.31;4977127;28;20541;-86
2022/10/11 00:12:31;;;;;;;6.73;3.23;;;;;;;18.72;59.55;99774.31;4978391;28;20184;-86
2022/10/11 00:14:57;;;;;;;8.83;3.23;;;;;;;18.71;59.48;99783.25;4977048;28;20638;-86
2022/10/11 00:17:22;;;;;;;8.57;3.90;;;;;;;18.63;60.09;99780.31;4977069;28;20192;-86
2022/10/11 00:19:48;;;;;;;10.17;3.97;;;;;;;18.61;59.96;99771.63;4976981;28;20169;-86
2022/10/11 00:22:13;;;;;;;6.73;3.17;;;;;;;18.62;60.38;99768.03;4977001;28;20186;-86
2022/10/11 00:24:39;;;;;;;7.03;3.80;;;;;;;18.59;60.39;99770.91;4977862;28;20175;-86
2022/10/11 00:27:04;;;;;;;10.80;4.23;;;;;;;18.53;60.26;99768.69;4976864;28;20184;-86
2022/10/11 00:29:29;;;;;;;7.50;3.57;;;;;;;18.48;60.77;99765.53;4977681;28;20177;-86
2022/10/11 00:31:55;;;;;;;6.87;3.63;;;;;;;18.43;60.79;99772.97;4976742;28;20203;-87
2022/10/11 00:34:20;;;;;;;5.53;3.00;;;;;;;18.46;61.10;99769.25;4977990;28;20190;-87
2022/10/11 00:36:46;;;;;;;7.27;4.17;;;;;;;18.45;60.98;99763.09;4977912;28;20169;-86
2022/10/11 00:39:12;;;;;;;8.83;3.27;;;;;;;18.36;61.28;99761.13;4976667;28;20270;-87
2022/10/11 00:41:37;;;;;;;9.27;3.83;;;;;;;18.30;61.34;99766.88;4977569;28;20190;-86
2022/10/11 00:44:08;;;;;;;11.10;3.43;;;;;;;18.28;61.63;99768.81;4977539;28;20254;-87
2022/10/11 00:46:34;;;;;;;10.93;3.47;;;;;;;18.29;61.76;99763.38;4976553;28;20215;-87
2022/10/11 00:49:04;;;;;;;4.57;2.67;;;;;;;18.31;61.49;99766.78;4976480;28;20204;-87
2022/10/11 00:51:44;;;;;;;6.20;3.03;;;;;;;18.28;61.40;99768.81;4977633;28;20231;-87
2022/10/11 00:54:13;;;;;;;9.50;4.07;;;;;;;18.26;61.90;99760.94;4977650;28;20264;-87
2022/10/11 00:56:40;;;;;;;12.27;3.60;;;;;;;18.18;62.36;99763.34;4976343;28;20223;-87
2022/10/11 00:59:13;;;;;;;9.97;3.93;;;;;;;18.18;62.49;99762.50;4977309;28;20177;-86
2022/10/11 01:01:38;;;;;;;8.13;3.80;;;;;;;18.17;62.66;99758.13;4977117;28;20167;-86
2022/10/11 01:04:04;;;;;;;5.67;3.07;;;;;;;18.10;62.76;99762.22;4976265;28;20277;-86
2022/10/11 01:06:30;;;;;;;6.50;3.30;;;;;;;18.10;62.93;99765.72;4976179;28;20173;-87
2022/10/11 01:08:55;;;;;;;9.97;4.40;;;;;;;18.05;63.45;99751.09;4977338;28;20176;-86
2022/10/11 01:11:24;;;;;;;5.37;3.13;;;;;;;18.05;63.14;99748.44;4976999;28;20204;-86
2022/10/11 01:14:23;;;;;;;9.30;3.60;;;;;;;18.01;63.26;99749.59;4976394;28;20184;-87
2022/10/11 01:17:07;;;;;;;8.77;3.20;;;;;;;17.91;63.97;99760.06;4977498;28;20595;-87
2022/10/11 01:20:10;;;;;;;12.90;3.03;;;;;;;17.87;64.46;99745.34;4975942;28;20319;-87
2022/10/11 01:22:50;;;;;;;11.57;3.80;;;;;;;17.87;64.63;99747.97;4976859;28;20177;-86
2022/10/11 01:25:20;;;;;;;8.77;2.80;;;;;;;17.86;64.50;99738.31;4975828;28;20180;-86
2022/10/11 01:28:00;;;;;;;9.10;3.40;;;;;;;17.79;64.86;99734.44;4977022;28;20259;-87
2022/10/11 01:30:34;;;;;;;11.30;3.17;;;;;;;17.73;64.77;99735.72;4976589;28;20207;-87
2022/10/11 01:33:17;;;;;;;14.70;4.20;;;;;;;17.72;64.81;99734.00;4976626;28;20256;-86
2022/10/11 01:35:46;;;;;;;8.30;2.80;;;;;;;17.73;64.80;99734.88;4976920;28;20166;-87
2022/10/11 01:38:41;;;;;;;12.50;3.23;;;;;;;17.69;64.65;99730.72;4975640;28;20180;-87
2022/10/11 01:41:10;;;;;;;12.67;3.63;;;;;;;17.63;64.55;99729.38;4976812;28;20250;-87
2022/10/11 01:43:38;;;;;;;6.80;3.70;;;;;;;17.59;64.76;99725.25;4975504;28;20271;-88
2022/10/11 01:46:06;;;;;;;7.47;3.10;;;;;;;17.63;64.27;99729.38;4976417;28;20255;-87
2022/10/11 01:48:31;;;;;;;8.67;3.97;;;;;;;17.59;64.48;99722.59;4976674;28;20628;-87
2022/10/11 01:51:01;;;;;;;6.07;2.87;;;;;;;17.52;64.22;99721.31;4976276;28;20254;-87
2022/10/11 01:53:57;;;;;;;4.77;2.80;;;;;;;17.48;64.03;99719.81;4976334;28;20172;-87
2022/10/11 01:56:48;;;;;;;7.10;3.50;;;;;;;17.41;64.49;99718.59;4976862;28;20171;-87
2022/10/11 01:59:32;;;;;;;12.87;3.87;;;;;;;17.34;64.44;99722.63;4976485;28;20165;-87
2022/10/11 02:02:03;;;;;;;4.77;2.60;;;;;;;17.35;64.48;99723.50;4975164;28;20195;-87
2022/10/11 02:04:55;;;;;;;6.47;3.40;;;;;;;17.23;63.69;99719.88;4976386;28;20178;-86
2022/10/11 02:07:37;;;;;;;6.03;3.30;;;;;;;17.13;62.89;99727.66;4976564;28;20516;-87
2022/10/11 02:10:19;;;;;;;8.07;3.50;;;;;;;16.95;62.28;99720.13;4975924;28;20192;-87
2022/10/11 02:12:59;;;;;;;8.93;4.23;;;;;;;16.92;61.73;99721.19;4974988;28;20630;-86
2022/10/11 02:15:28;;;;;;;11.47;3.80;;;;;;;16.96;60.94;99727.09;4974960;28;20184;-87
2022/10/11 02:17:58;;;;;;;8.93;3.70;;;;;;;16.97;60.53;99728.81;4976100;28;20180;-86
2022/10/11 02:20:26;;;;;;;6.77;4.20;;;;;;;16.88;60.51;99734.72;4975767;28;20176;-87
2022/10/11 02:22:57;;;;;;;6.60;3.43;;;;;;;16.86;60.38;99731.34;4974796;28;20173;-87
2022/10/11 02:25:25;;;;;;;5.93;3.17;;;;;;;16.86;60.26;99726.03;4973994;28;20179;-86
2022/10/11 02:27:55;;;;;;;10.27;4.07;;;;;;;16.85;59.88;99727.03;4975718;28;20203;-87
2022/10/11 02:30:22;;;;;;;9.47;3.77;;;;;;;16.76;60.15;99722.34;4974455;28;20243;-86
2022/10/11 02:32:49;;;;;;;8.33;3.30;;;;;;;16.70;60.12;99725.41;4975573;28;20179;-86
2022/10/11 02:35:15;;;;;;;10.97;4.17;;;;;;;16.64;60.14;99720.53;4974542;28;20181;-87
2022/10/11 02:37:51;;;;;;;6.50;3.20;;;;;;;16.52;60.22;99728.34;4974522;28;20187;-86
2022/10/11 02:40:23;;;;;;;7.73;3.63;;;;;;;16.48;60.50;99724.16;4974505;28;20179;-86
2022/10/11 02:43:01;;;;;;;5.43;3.53;;;;;;;16.34;60.37;99718.97;4974443;28;20190;-87
2022/10/11 02:45:48;;;;;;;8.43;3.40;;;;;;;16.37;60.46;99721.41;4975628;28;20175;-87
2022/10/11 02:48:15;;;;;;;7.93;4.07;;;;;;;16.34;60.12;99737.50;4975263;28;20186;-87
2022/10/11 02:50:41;;;;;;;8.60;4.57;;;;;;;16.35;60.10;99733.88;4974198;28;20204;-87
2022/10/11 02:53:08;;;;;;;10.97;4.50;;;;;;;16.39;59.68;99732.75;4974193;28;20201;-87
2022/10/11 02:55:34;;;;;;;9.03;3.50;;;;;;;16.31;59.77;99728.91;4975429;28;20207;-87
2022/10/11 02:57:59;;;;;;;7.30;3.83;;;;;;;16.26;59.62;99726.56;4974159;28;20529;-87
2022/10/11 03:00:25;;;;;;;10.27;3.27;;;;;;;16.22;59.34;99727.69;4974103;28;20673;-87
2022/10/11 03:02:50;;;;;;;13.40;4.10;;;;;;;16.24;59.21;99722.34;4975278;28;20526;-87
2022/10/11 03:05:16;;;;;;;11.50;3.43;;;;;;;16.23;59.26;99731.19;4975012;28;20178;-87
2022/10/11 03:07:41;;;;;;;8.93;4.17;;;;;;;16.21;59.35;99727.81;4973975;28;20178;-87
2022/10/11 03:10:07;;;;;;;6.07;3.80;;;;;;;16.13;59.85;99724.84;4973873;28;20212;-86
2022/10/11 03:12:32;;;;;;;6.67;3.50;;;;;;;16.07;60.16;99723.44;4975089;28;20196;-87
2022/10/11 03:14:58;;;;;;;7.30;2.97;;;;;;;15.95;60.45;99726.88;4975337;28;20182;-87
2022/10/11 03:17:24;;;;;;;8.77;4.07;;;;;;;15.86;60.79;99727.47;4975063;28;20175;-87
2022/10/11 03:19:49;;;;;;;8.43;4.10;;;;;;;15.89;60.77;99729.91;4973778;28;20179;-87
2022/10/11 03:22:16;;;;;;;5.33;3.17;;;;;;;15.98;60.46;99726.69;4974706;28;20199;-87
2022/10/11 03:24:41;;;;;;;10.90;3.97;;;;;;;16.03;60.03;99719.31;4974628;28;20175;-86
2022/10/11 03:27:07;;;;;;;6.90;3.80;;;;;;;15.95;60.16;99730.38;4974637;28;20624;-86
2022/10/11 03:29:32;;;;;;;10.00;3.87;;;;;;;15.79;61.27;99720.91;4973574;28;20177;-87
2022/10/11 03:31:58;;;;;;;9.10;3.63;;;;;;;15.77;61.32;99722.78;4974459;28;20721;-87
2022/10/11 03:34:23;;;;;;;13.53;4.30;;;;;;;15.83;61.03;99722.38;4974793;28;20169;-87
2022/10/11 03:36:49;;;;;;;7.13;3.87;;;;;;;15.79;60.86;99724.38;4974228;28;20304;-86
2022/10/11 03:39:14;;;;;;;8.97;3.80;;;;;;;15.73;61.21;99724.78;4974461;28;20184;-87
2022/10/11 03:41:40;;;;;;;6.67;3.83;;;;;;;15.63;61.38;99725.47;4974433;28;20542;-87
2022/10/11 03:44:05;;;;;;;6.27;2.97;;;;;;;15.63;61.42;99728.97;4974402;28;20626;-87
2022/10/11 03:46:31;;;;;;;7.87;4.07;;;;;;;15.68;61.15;99728.66;4973405;28;20589;-87
2022/10/11 03:48:56;;;;;;;8.23;3.23;;;;;;;15.70;61.28;99732.03;4974333;28;20703;-86
2022/10/11 03:51:21;;;;;;;7.70;3.53;;;;;;;15.65;61.13;99728.84;4973296;28;20267;-87
2022/10/11 03:53:47;;;;;;;8.17;3.63;;;;;;;15.68;60.81;99721.59;4973316;28;20199;-87
2022/10/11 03:56:13;;;;;;;10.53;3.83;;;;;;;15.72;60.62;99723.06;4974274;28;20626;-87
2022/10/11 03:58:40;;;;;;;9.00;3.97;;;;;;;15.67;60.96;99717.22;4974218;28;20178;-87
2022/10/11 04:01:06;;;;;;;5.47;3.27;;;;;;;15.67;61.18;99713.78;4974745;28;20169;-87
2022/10/11 04:03:32;;;;;;;9.33;3.97;;;;;;;15.66;61.00;99715.56;4973225;28;20181;-87
2022/10/11 04:05:57;;;;;;;8.83;4.00;;;;;;;15.65;61.53;99715.63;4974377;28;20192;-86
2022/10/11 04:08:23;;;;;;;6.93;3.70;;;;;;;15.68;61.51;99720.72;4974132;28;20178;-87
2022/10/11 04:10:48;;;;;;;8.43;3.80;;;;;;;15.70;61.51;99711.75;4974304;28;20193;-87
2022/10/11 04:13:16;;;;;;;8.93;3.87;;;;;;;15.63;61.81;99707.81;4974143;28;20748;-87
2022/10/11 04:15:41;;;;;;;12.10;4.63;;;;;;;15.64;61.72;99706.88;4974185;28;20252;-87
2022/10/11 04:18:08;;;;;;;10.43;3.27;;;;;;;15.67;61.92;99708.47;4974089;28;20220;-87
2022/10/11 04:20:33;;;;;;;6.37;4.07;;;;;;;15.67;61.83;99709.31;4973022;28;20588;-87
2022/10/11 04:22:59;;;;;;;9.57;4.13;;;;;;;15.64;62.29;99711.31;4973039;28;20268;-87
2022/10/11 04:25:24;;;;;;;10.27;3.60;;;;;;;15.68;62.32;99712.81;4974242;28;20174;-87
2022/10/11 04:27:50;;;;;;;9.37;4.00;;;;;;;15.73;62.53;99713.34;4972983;28;20176;-87
2022/10/11 04:30:15;;;;;;;6.50;3.47;;;;;;;15.80;62.30;99712.03;4972834;28;20210;-87
2022/10/11 04:32:41;;;;;;;6.33;3.33;;;;;;;15.76;62.88;99710.50;4974169;28;20179;-87
2022/10/11 04:35:07;;;;;;;15.97;3.90;;;;;;;15.70;63.14;99709.13;4973950;28;20359;-87
2022/10/11 04:37:33;;;;;;;7.73;3.80;;;;;;;15.65;63.24;99713.84;4972908;28;20184;-87
2022/10/11 04:39:59;;;;;;;9.57;3.07;;;;;;;15.64;63.33;99714.81;4972923;28;20665;-87
2022/10/11 04:42:24;;;;;;;5.53;3.30;;;;;;;15.66;63.06;99714.69;4972965;28;20176;-87
2022/10/11 04:44:50;;;;;;;8.23;3.97;;;;;;;15.68;63.38;99718.09;4972887;28;20634;-87
2022/10/11 04:47:15;;;;;;;7.47;3.97;;;;;;;15.65;63.20;99713.84;4974124;28;20173;-87
2022/10/11 04:49:40;;;;;;;8.97;4.07;;;;;;;15.66;63.01;99715.56;4974514;28;20245;-87
2022/10/11 04:52:06;;;;;;;10.10;3.97;;;;;;;15.72;62.71;99714.31;4976483;28;20626;-87
2022/10/11 04:54:31;;;;;;;8.67;3.63;;;;;;;15.68;62.79;99718.94;4976432;28;20173;-87
2022/10/11 04:56:57;;;;;;;8.77;3.83;;;;;;;15.73;62.81;99723.91;4977372;28;20170;-87
2022/10/11 04:59:22;;;;;;;6.93;3.97;;;;;;;15.69;62.28;99714.50;4976341;28;20191;-87
2022/10/11 05:01:48;;;;;;;13.30;4.83;;;;;;;15.67;61.85;99719.06;4977235;28;20545;-87
2022/10/11 05:04:13;;;;;;;10.07;3.80;;;;;;;15.67;61.91;99725.16;4977266;28;20213;-87
2022/10/11 05:06:39;;;;;;;6.33;3.70;;;;;;;15.72;61.27;99724.88;4976265;28;20281;-87
2022/10/11 05:09:04;;;;;;;12.53;4.17;;;;;;;15.64;61.03;99720.09;4976174;28;20272;-87
2022/10/11 05:11:29;;;;;;;10.10;4.67;;;;;;;15.70;61.13;99724.13;4977252;28;20243;-87
2022/10/11 05:13:55;;;;;;;8.57;3.33;;;;;;;15.78;60.82;99724.47;4977047;28;20185;-87
2022/10/11 05:16:21;;;;;;;10.17;3.70;;;;;;;15.85;60.68;99716.03;4976978;28;20261;-87
2022/10/11 05:18:47;;;;;;;9.13;4.57;;;;;;;15.83;60.96;99717.09;4976967;28;20208;-87
2022/10/11 05:21:18;;;;;;;13.53;4.27;;;;;;;15.83;61.31;99717.09;4976921;28;20617;-87
2022/10/11 05:23:46;;;;;;;6.93;4.00;;;;;;;15.91;61.39;99720.09;4976833;28;20256;-87
2022/10/11 05:26:12;;;;;;;7.93;3.50;;;;;;;15.95;61.27;99716.31;4976818;28;20227;-87
2022/10/11 05:28:37;;;;;;;11.73;4.90;;;;;;;15.96;61.25;99723.28;4975820;28;20694;-86
2022/10/11 05:31:03;;;;;;;9.40;4.63;;;;;;;16.02;61.55;99725.53;4975690;28;20226;-87
2022/10/11 05:33:29;;;;;;;11.53;3.63;;;;;;;16.17;61.35;99727.16;4977204;28;20176;-88
2022/10/11 05:35:54;;;;;;;17.07;4.63;;;;;;;16.28;61.57;99729.94;4976622;28;20248;-88
2022/10/11 05:38:19;;;;;;;7.97;4.40;;;;;;;16.35;61.66;99731.22;4976528;28;20250;-88
2022/10/11 05:40:45;;;;;;;22.47;5.30;;;;;;;16.36;61.22;99726.78;4976799;28;20171;-88
2022/10/11 05:43:10;;;;;;;11.43;4.37;;;;;;;16.45;61.07;99726.19;4976532;28;20219;-87
2022/10/11 05:45:41;;;;;;;10.30;4.63;;;;;;;16.61;60.77;99736.63;4976488;28;20171;-87
2022/10/11 05:48:07;;;;;;;8.83;3.77;;;;;;;16.73;60.39;99736.63;4976437;28;20170;-87
2022/10/11 05:50:33;;;;;;;12.33;4.40;;;;;;;16.76;60.51;99735.56;4976299;28;20559;-87
2022/10/11 05:52:59;;;;;;;10.37;4.80;;;;;;;16.82;60.73;99732.53;4976340;28;20248;-87
2022/10/11 05:55:25;;;;;;;9.90;4.00;;;;;;;16.79;60.96;99740.66;4976260;28;20583;-87
2022/10/11 05:57:52;;;;;;;7.60;3.70;;;;;;;16.79;61.49;99735.38;4975301;28;20208;-87
2022/10/11 06:00:17;;;;;;;11.43;4.27;;;;;;;16.91;61.29;99734.53;4976042;28;20176;-87
2022/10/11 06:02:43;;;;;;;7.73;4.43;;;;;;;17.01;61.37;99735.56;4976422;28;20176;-87
2022/10/11 06:05:08;;;;;;;12.00;5.10;;;;;;;17.06;61.35;99733.44;4975148;28;20241;-87
2022/10/11 06:07:35;;;;;;;10.20;4.87;;;;;;;17.21;60.87;99732.41;4975087;28;20638;-87
2022/10/11 06:10:01;;;;;;;11.93;5.73;;;;;;;17.29;61.03;99730.06;4975941;28;20205;-87
2022/10/11 06:12:28;;;;;;;9.13;4.07;;;;;;;17.35;61.05;99736.75;4974978;28;20176;-87
2022/10/11 06:14:54;;;;;;;61.33;20.87;;;;;;;17.47;61.01;99728.75;4974975;28;20253;-86
2022/10/11 06:17:19;;;;;;;67.03;30.00;;;;;;;17.54;61.25;99732.69;4976376;28;20187;-87
2022/10/11 06:19:45;;;;;;;65.50;26.93;;;;;;;17.61;61.51;99731.28;4974862;28;20194;-87
2022/10/11 06:22:11;;;;;;;87.57;32.10;;;;;;;17.70;62.03;99724.47;4974839;28;20276;-87
2022/10/11 06:24:36;;;;;;;42.23;19.20;;;;;;;17.75;62.36;99727.63;4975034;28;20275;-87
2022/10/11 06:27:01;;;;;;;27.53;10.43;;;;;;;17.90;62.40;99731.00;4975692;28;20630;-87
2022/10/11 06:29:27;;;;;;;18.13;7.10;;;;;;;18.02;62.82;99735.41;4975925;28;20176;-87
2022/10/11 06:31:52;;;;;;;20.60;5.67;;;;;;;18.07;63.23;99733.25;4974580;28;20302;-87
2022/10/11 06:34:18;;;;;;;11.10;3.60;;;;;;;18.24;63.37;99733.69;4974630;28;20168;-87
2022/10/11 06:36:43;;;;;;;10.10;4.27;;;;;;;18.37;63.91;99728.28;4974597;28;20650;-87
2022/10/11 06:39:08;;;;;;;9.83;4.90;;;;;;;18.47;63.47;99734.66;4975459;28;20187;-87
2022/10/11 06:41:34;;;;;;;13.13;6.77;;;;;;;18.56;63.99;99731.31;4975693;28;20315;-87
2022/10/11 06:43:59;;;;;;;12.13;5.60;;;;;;;18.76;63.39;99729.78;4974438;28;20187;-87
2022/10/11 06:46:26;;;;;;;15.50;6.33;;;;;;;18.97;62.72;99731.63;4975406;28;20200;-87
2022/10/11 06:48:52;;;;;;;20.33;7.37;;;;;;;18.97;62.42;99736.94;4974365;28;20180;-86
2022/10/11 06:51:19;;;;;;;21.30;7.90;;;;;;;19.10;62.14;99730.69;4975412;28;20219;-87
2022/10/11 06:53:57;;;;;;;19.17;7.53;;;;;;;19.22;61.95;99741.19;4975211;28;20173;-87
2022/10/11 06:56:27;;;;;;;17.87;6.80;;;;;;;19.28;61.73;99727.44;4974353;28;20172;-87
2022/10/11 06:58:54;;;;;;;13.47;5.73;;;;;;;19.36;61.61;99737.47;4974153;28;20193;-87
2022/10/11 07:01:22;;;;;;;13.87;6.10;;;;;;;19.45;61.57;99732.28;4975364;28;20174;-87
2022/10/11 07:03:49;;;;;;;10.97;4.33;;;;;;;19.43;61.52;99725.41;4975026;28;20584;-87
2022/10/11 07:06:18;;;;;;;13.23;5.60;;;;;;;19.58;61.56;99721.50;4975184;28;20530;-87
2022/10/11 07:08:43;;;;;;;23.53;8.83;;;;;;;19.81;61.11;99728.47;4974950;28;20256;-87
2022/10/11 07:11:14;;;;;;;21.10;6.97;;;;;;;19.97;61.29;99715.63;4974698;28;20283;-87
2022/10/11 07:13:40;;;;;;;5.80;2.90;;;;;;;20.32;61.36;99718.06;4975121;28;20161;-88
2022/10/11 07:16:09;;;;;;;6.70;3.47;;;;;;;20.64;59.78;99715.38;4974136;28;20263;-87
2022/10/11 07:18:35;;;;;;;5.73;2.97;;;;;;;20.94;59.92;99720.72;4973796;28;20176;-88
2022/10/11 07:21:06;;;;;;;8.90;3.73;;;;;;;21.14;58.23;99717.25;4973823;28;20194;-88
2022/10/11 07:23:32;;;;;;;8.10;2.93;;;;;;;21.27;57.56;99717.84;4975211;28;20179;-88
2022/10/11 07:25:57;;;;;;;7.67;2.50;;;;;;;21.41;56.19;99717.47;4974671;28;20283;-88
2022/10/11 07:28:24;;;;;;;7.47;2.97;;;;;;;21.54;56.06;99719.91;4975138;28;20184;-88
2022/10/11 07:30:49;;;;;;;5.30;2.57;;;;;;;21.61;55.14;99714.88;4973435;28;20212;-88
2022/10/11 07:33:15;;;;;;;15.23;3.10;;;;;;;21.59;54.47;99711.50;4975023;28;20173;-88
2022/10/11 07:35:40;;;;;;;11.43;3.20;;;;;;;21.63;53.69;99721.75;4975024;28;20262;-88
2022/10/11 07:38:06;;;;;;;10.80;2.53;;;;;;;21.48;54.55;99711.63;4974476;28;20176;-88
2022/10/11 07:40:33;;;;;;;4.43;2.20;;;;;;;21.43;53.99;99707.50;4973518;28;20188;-88
2022/10/11 07:42:59;;;;;;;6.73;2.67;;;;;;;21.44;54.67;99708.34;4974662;28;20253;-88
2022/10/11 07:45:27;;;;;;;8.87;3.67;;;;;;;21.44;54.09;99706.53;4974621;28;20572;-88
2022/10/11 07:47:55;;;;;;;6.33;1.80;;;;;;;21.41;54.94;99696.13;4974867;28;20180;-88
2022/10/11 07:50:22;;;;;;;7.83;2.97;;;;;;;21.34;55.55;99703.00;4973299;28;20200;-88
2022/10/11 07:52:47;;;;;;;7.13;3.00;;;;;;;21.36;54.72;99703.69;4973347;28;20270;-88
2022/10/11 07:55:12;;;;;;;12.17;3.07;;;;;;;21.39;54.72;99706.09;4973693;28;20215;-87
2022/10/11 07:57:38;;;;;;;9.23;3.20;;;;;;;21.53;54.37;99701.38;4974419;28;20172;-88
2022/10/11 08:00:05;;;;;;;9.07;2.87;;;;;;;21.51;54.28;99698.84;4973549;28;20257;-88
2022/10/11 08:02:30;;;;;;;6.63;2.57;;;;;;;21.62;54.49;99708.56;4973571;28;20648;-88
2022/10/11 08:04:55;;;;;;;11.10;2.73;;;;;;;21.76;54.43;99705.50;4974180;28;20638;-88
2022/10/11 08:07:21;;;;;;;8.47;2.40;;;;;;;21.73;53.84;99703.94;4973211;28;20191;-88
2022/10/11 08:09:46;;;;;;;3.67;2.00;;;;;;;21.74;54.18;99700.31;4973116;28;20227;-89
2022/10/11 08:12:12;;;;;;;9.87;2.03;;;;;;;21.71;53.89;99699.72;4973442;28;20188;-87
2022/10/11 08:14:38;;;;;;;8.53;2.37;;;;;;;21.75;53.50;99703.84;4974081;28;20263;-88
2022/10/11 08:17:03;;;;;;;4.80;2.30;;;;;;;21.93;53.67;99699.53;4973129;28;20180;-88
2022/10/11 08:19:29;;;;;;;7.77;2.53;;;;;;;21.88;53.06;99697.25;4973098;28;20705;-88
2022/10/11 08:21:54;;;;;;;4.47;2.23;;;;;;;21.81;53.69;99695.25;4974320;28;20183;-88
2022/10/11 08:24:20;;;;;;;5.00;2.33;;;;;;;21.96;53.25;99692.06;4974304;28;20177;-88
2022/10/11 08:26:46;;;;;;;4.17;2.13;;;;;;;21.86;52.82;99688.56;4976963;28;20275;-88
2022/10/11 08:29:13;;;;;;;4.00;2.07;;;;;;;21.88;52.69;99697.25;4977891;28;20185;-88
2022/10/11 08:31:39;;;;;;;7.97;2.57;;;;;;;21.90;52.48;99684.66;4976717;28;20223;-88
2022/10/11 08:34:04;;;;;;;4.03;1.77;;;;;;;22.15;52.08;99693.06;4976851;28;20176;-88
2022/10/11 08:36:30;;;;;;;8.43;2.40;;;;;;;22.08;52.25;99692.81;4978022;28;20188;-89
2022/10/11 08:38:55;;;;;;;5.10;1.93;;;;;;;22.14;51.69;99692.25;4976718;28;20177;-88
2022/10/11 08:41:30;;;;;;;6.73;2.03;;;;;;;22.32;51.57;99689.72;4976763;28;20173;-89
2022/10/11 08:44:36;;;;;;;6.40;2.27;;;;;;;22.49;50.93;99686.31;4978152;28;20196;-88
2022/10/11 08:47:42;;;;;;;4.80;2.33;;;;;;;22.34;50.70;99701.94;4976080;28;20204;-89
2022/10/11 08:50:17;;;;;;;6.90;2.70;;;;;;;22.50;50.58;99699.53;4975995;28;20212;-87
2022/10/11 08:52:51;;;;;;;6.47;1.70;;;;;;;22.64;50.18;99691.09;4976546;28;20168;-88
2022/10/11 08:55:49;;;;;;;3.67;2.00;;;;;;;22.76;49.40;99683.78;4977700;28;20243;-88
2022/10/11 08:58:19;;;;;;;3.43;2.03;;;;;;;22.83;49.28;99684.03;4973394;28;20192;-87
2022/10/11 09:00:48;;;;;;;4.20;1.80;;;;;;;22.93;49.00;99687.53;4977331;28;20634;-88
2022/10/11 09:03:23;;;;;;;4.97;2.23;;;;;;;22.88;49.19;99687.94;4977262;28;20181;-88
2022/10/11 09:05:58;;;;;;;5.53;2.47;;;;;;;22.88;48.65;99681.75;4977216;28;20207;-89
2022/10/11 09:08:41;;;;;;;6.37;1.97;;;;;;;22.78;49.33;99678.28;4976184;28;20535;-89
2022/10/11 09:11:22;;;;;;;3.53;1.60;;;;;;;23.03;49.64;99673.16;4976122;28;20196;-88
2022/10/11 09:14:09;;;;;;;4.93;2.07;;;;;;;23.20;48.49;99671.50;4976402;28;20194;-88
2022/10/11 09:17:17;;;;;;;4.97;2.30;;;;;;;23.35;47.37;99670.03;4977320;28;20161;-88
2022/10/11 09:20:16;;;;;;;5.93;2.30;;;;;;;22.77;48.11;99668.59;4977273;28;20153;-88
2022/10/11 09:22:48;;;;;;;4.63;1.83;;;;;;;22.89;49.26;99665.59;4976191;28;20286;-88
2022/10/11 09:25:19;;;;;;;10.90;2.77;;;;;;;23.16;48.06;99675.50;4976879;28;20172;-88
2022/10/11 09:27:55;;;;;;;3.40;2.10;;;;;;;23.33;47.36;99671.16;4977063;28;20168;-87
2022/10/11 09:30:21;;;;;;;4.23;2.07;;;;;;;23.49;46.99;99672.25;4976782;28;20266;-88
2022/10/11 09:32:58;;;;;;;3.90;1.97;;;;;;;23.51;46.23;99667.59;4975801;28;20180;-88
2022/10/11 09:35:23;;;;;;;4.70;2.53;;;;;;;23.62;46.49;99661.19;4976504;28;20240;-88
2022/10/11 09:38:06;;;;;;;4.20;2.40;;;;;;;23.45;46.92;99660.19;4975678;28;20264;-88
2022/10/11 09:40:57;;;;;;;6.33;2.50;;;;;;;23.71;46.69;99660.28;4975673;28;20177;-89
2022/10/11 09:43:23;;;;;;;6.43;2.20;;;;;;;23.67;46.04;99654.38;4975630;28;20186;-88
2022/10/11 09:45:49;;;;;;;3.83;2.00;;;;;;;24.04;45.46;99654.25;4976485;28;20262;-88
2022/10/11 09:48:19;;;;;;;3.87;2.20;;;;;;;24.09;45.69;99648.47;4976746;28;20207;-88
2022/10/11 09:50:45;;;;;;;4.93;2.10;;;;;;;24.40;44.42;99653.25;4975415;28;20217;-88
2022/10/11 09:53:12;;;;;;;4.30;2.13;;;;;;;24.57;44.97;99640.84;4976625;28;20176;-87
2022/10/11 09:55:39;;;;;;;10.37;2.67;;;;;;;24.74;44.27;99639.94;4976284;28;20591;-88
2022/10/11 09:58:21;;;;;;;6.93;2.73;;;;;;;25.08;43.93;99631.94;4976256;28;20552;-88
2022/10/11 10:00:57;;;;;;;6.47;2.70;;;;;;;25.26;43.68;99621.94;4975359;28;20169;-88
2022/10/11 10:03:37;;;;;;;5.73;2.37;;;;;;;25.24;42.40;99625.78;4976492;28;20164;-88
2022/10/11 10:06:15;;;;;;;6.33;2.43;;;;;;;25.42;42.30;99624.69;4976681;28;20203;-88
2022/10/11 10:08:42;;;;;;;3.80;1.80;;;;;;;25.57;41.99;99616.88;4976351;28;20669;-88
2022/10/11 10:11:09;;;;;;;3.90;2.33;;;;;;;25.58;41.25;99614.03;4975283;28;20200;-88
2022/10/11 10:13:45;;;;;;;10.63;2.63;;;;;;;25.30;41.65;99626.00;4976253;28;20176;-88
2022/10/11 10:16:30;;;;;;;7.00;2.40;;;;;;;25.01;41.94;99626.38;4976497;28;20571;-88
2022/10/11 10:19:05;;;;;;;3.27;1.70;;;;;;;24.99;42.37;99617.66;4976551;28;20168;-89
2022/10/11 10:21:42;;;;;;;3.37;1.83;;;;;;;25.04;41.83;99620.69;4975149;28;20540;-89
2022/10/11 10:24:24;;;;;;;2.97;1.83;;;;;;;25.09;42.24;99620.19;4975853;28;20164;-88
2022/10/11 10:27:10;;;;;;;4.87;2.00;;;;;;;25.37;41.56;99604.69;4976308;28;20161;-88
2022/10/11 10:29:35;;;;;;;4.23;2.00;;;;;;;25.49;40.93;99615.03;4975397;28;20188;-88
2022/10/11 10:32:15;;;;;;;8.80;2.50;;;;;;;25.69;40.47;99615.56;4975072;28;20544;-88
2022/10/11 10:34:51;;;;;;;3.33;1.83;;;;;;;25.85;40.52;99615.59;4976100;28;20514;-89
2022/10/11 10:37:25;;;;;;;4.70;1.87;;;;;;;26.10;39.75;99601.16;4974619;28;20238;-89
2022/10/11 10:39:59;;;;;;;5.00;1.83;;;;;;;26.15;39.81;99601.53;4975801;28;20161;-88
2022/10/11 10:42:25;;;;;;;3.73;1.90;;;;;;;26.20;39.86;99601.84;4974857;28;20184;-88
2022/10/11 10:44:55;;;;;;;5.97;2.37;;;;;;;26.31;39.72;99591.78;4975673;28;20344;-88
2022/10/11 10:47:48;;;;;;;7.23;2.00;;;;;;;26.40;38.87;99588.06;4974130;28;20220;-88
2022/10/11 10:50:20;;;;;;;4.10;1.90;;;;;;;26.40;38.81;99588.91;4975116;28;20215;-88
2022/10/11 10:52:55;;;;;;;3.83;1.97;;;;;;;26.23;38.86;99589.97;4975530;28;20267;-88
2022/10/11 10:55:39;;;;;;;5.17;2.63;;;;;;;26.21;39.12;99583.88;4975360;28;20172;-88
2022/10/11 10:58:19;;;;;;;6.57;2.20;;;;;;;26.26;38.31;99576.16;4974217;28;20563;-88
2022/10/11 11:00:48;;;;;;;6.40;2.23;;;;;;;26.27;38.76;99572.47;4975135;28;20602;-88
2022/10/11 11:03:32;;;;;;;5.77;1.80;;;;;;;26.35;38.80;99575.16;4975085;28;20243;-88
2022/10/11 11:06:05;;;;;;;4.13;2.23;;;;;;;26.35;38.50;99571.63;4975557;28;20161;-89
2022/10/11 11:08:55;;;;;;;8.50;1.83;;;;;;;26.35;37.97;99571.63;4973998;28;20180;-88
2022/10/11 11:11:23;;;;;;;4.57;2.03;;;;;;;26.41;38.97;99560.19;4973904;28;20287;-88
2022/10/11 11:14:01;;;;;;;4.83;1.80;;;;;;;26.41;38.60;99565.56;4974699;28;20180;-88
2022/10/11 11:17:08;;;;;;;5.20;1.97;;;;;;;26.46;38.14;99555.97;4973903;28;20250;-88
2022/10/11 11:20:01;;;;;;;6.67;2.00;;;;;;;26.35;37.61;99558.16;4937803;29;20211;-88
2022/10/11 11:22:51;;;;;;;3.60;1.63;;;;;;;26.02;37.86;99557.34;4954163;29;20165;-88
2022/10/11 11:25:30;;;;;;;3.27;1.43;;;;;;;25.79;38.57;99550.94;4972062;28;20288;-88
2022/10/11 11:27:58;;;;;;;3.63;1.60;;;;;;;25.80;38.16;99552.63;4973718;28;20529;-88
2022/10/11 11:30:56;;;;;;;4.77;1.97;;;;;;;25.87;38.16;99559.00;4974794;28;20204;-88
2022/10/11 11:33:46;;;;;;;5.30;1.70;;;;;;;26.02;38.16;99552.78;4973647;28;20177;-88
2022/10/11 11:36:17;;;;;;;9.40;2.03;;;;;;;26.10;38.26;99543.91;4974821;28;20161;-88
2022/10/11 11:38:50;;;;;;;4.57;2.00;;;;;;;26.15;38.17;99545.09;4973560;28;20184;-88
2022/10/11 11:41:20;;;;;;;3.67;1.90;;;;;;;26.01;37.85;99550.28;4973570;28;20596;-88
2022/10/11 11:44:04;;;;;;;3.43;1.60;;;;;;;25.85;39.04;99550.28;4974460;28;20195;-88
2022/10/11 11:46:39;;;;;;;2.53;1.43;;;;;;;25.89;38.37;99541.72;4974955;28;20172;-88